NJT300 CYVR-KBOI
Flight info
| Callsign | NJT300 |
|---|---|
| Flight time | N/A |
| Altitude | 37000 |
| Route | YVR J5 SEA J20 PDT DCT BKE DCT DEVLE KYAAN4 |
| Aircraft | A20N/M-SDE2E3FGHIRWXY/LB1 |
Departure
| Time | 2026-05-06 05:42 |
|---|---|
| Airport | Vancouver International Airport (CYVR) |
Arrival
| Time | N/A |
|---|---|
| Airport | Boise Air Terminal/Gowen Field (KBOI) |
| Time | Latitude | Longitude | Altitude | Speed | Heading |
|---|---|---|---|---|---|
| 2026-05-06 05:35 | 49.19497 | -123.18626 | 23 ft | 0 kts | 99° |
| 2026-05-06 05:36 | 49.19500 | -123.18649 | 26 ft | 3 kts | 99° |
| 2026-05-06 05:36 | 49.19504 | -123.18685 | 23 ft | 3 kts | 103° |
| 2026-05-06 05:36 | 49.19508 | -123.18706 | 25 ft | 2 kts | 135° |
| 2026-05-06 05:37 | 49.19518 | -123.18712 | 27 ft | 2 kts | 188° |
| 2026-05-06 05:37 | 49.19524 | -123.18711 | 26 ft | 0 kts | 187° |
| 2026-05-06 05:38 | 49.19516 | -123.18713 | 23 ft | 3 kts | 189° |
| 2026-05-06 05:38 | 49.19483 | -123.18721 | 25 ft | 7 kts | 189° |
| 2026-05-06 05:38 | 49.19427 | -123.18740 | 24 ft | 10 kts | 201° |
| 2026-05-06 05:38 | 49.19380 | -123.18832 | 26 ft | 13 kts | 253° |
| 2026-05-06 05:39 | 49.19361 | -123.18985 | 23 ft | 16 kts | 260° |
| 2026-05-06 05:39 | 49.19340 | -123.19173 | 22 ft | 20 kts | 260° |
| 2026-05-06 05:39 | 49.19314 | -123.19396 | 21 ft | 23 kts | 259° |
| 2026-05-06 05:39 | 49.19281 | -123.19643 | 23 ft | 25 kts | 258° |
| 2026-05-06 05:40 | 49.19246 | -123.19913 | 23 ft | 27 kts | 259° |
| 2026-05-06 05:40 | 49.19209 | -123.20206 | 23 ft | 29 kts | 260° |
| 2026-05-06 05:40 | 49.19117 | -123.20429 | 23 ft | 27 kts | 189° |
| 2026-05-06 05:40 | 49.18963 | -123.20402 | 24 ft | 16 kts | 97° |
| 2026-05-06 05:41 | 49.18950 | -123.20270 | 26 ft | 13 kts | 100° |
| 2026-05-06 05:41 | 49.18899 | -123.19829 | 22 ft | 76 kts | 100° |
| 2026-05-06 05:41 | 49.18774 | -123.18733 | 23 ft | 130 kts | 100° |
| 2026-05-06 05:41 | 49.18591 | -123.17253 | 367 ft | 142 kts | 101° |
| 2026-05-06 05:42 | 49.18402 | -123.15784 | 885 ft | 144 kts | 101° |
| 2026-05-06 05:42 | 49.18075 | -123.14309 | 1339 ft | 152 kts | 130° |
| 2026-05-06 05:42 | 49.17161 | -123.13538 | 1808 ft | 159 kts | 175° |
| 2026-05-06 05:42 | 49.16008 | -123.13737 | 2153 ft | 177 kts | 190° |
| 2026-05-06 05:43 | 49.14731 | -123.14102 | 2498 ft | 197 kts | 189° |